Time;durP1;ratioP1;P1;durP2;ratioP2;P2;SDS_P1;SDS_P2;PMS_P1;PMS_P2;Temp;Humidity;BMP_temperature;BMP_pressure;BME280_temperature;BME280_humidity;BME280_pressure;Samples;Min_cycle;Max_cycle;Signal;HPM_P1;HPM_P2
2024/01/11 00:00:48;;;;;;;53.83;22.50;;;-6.10;99.90;;;;;;5032358;28;20558;-65
2024/01/11 00:03:14;;;;;;;48.90;21.42;;;-6.10;99.90;;;;;;5029419;28;20040;-65
2024/01/11 00:05:41;;;;;;;61.50;22.85;;;-6.20;99.90;;;;;;5031688;28;20044;-65
2024/01/11 00:08:07;;;;;;;64.97;27.35;;;-6.20;99.90;;;;;;5027234;28;20052;-65
2024/01/11 00:10:33;;;;;;;68.03;29.35;;;-6.30;99.90;;;;;;5035916;28;20037;-65
2024/01/11 00:12:58;;;;;;;56.17;23.83;;;-6.20;99.90;;;;;;5020037;28;20106;-65
2024/01/11 00:15:24;;;;;;;63.70;23.65;;;-6.30;99.90;;;;;;5030882;28;20037;-64
2024/01/11 00:17:49;;;;;;;47.40;21.25;;;-6.20;99.90;;;;;;5025378;28;20072;-64
2024/01/11 00:20:15;;;;;;;49.88;20.10;;;-6.20;99.90;;;;;;5030315;28;20072;-65
2024/01/11 00:22:41;;;;;;;55.13;20.42;;;-6.20;99.90;;;;;;5030209;28;20120;-65
2024/01/11 00:25:07;;;;;;;50.15;21.13;;;-6.20;99.90;;;;;;5029643;28;20095;-65
2024/01/11 00:27:33;;;;;;;53.10;21.52;;;-6.20;99.90;;;;;;5036405;28;20120;-64
2024/01/11 00:29:58;;;;;;;55.05;23.17;;;-6.30;99.90;;;;;;5039363;28;20039;-64
2024/01/11 00:32:24;;;;;;;50.22;22.10;;;-6.30;99.90;;;;;;5040213;28;20118;-64
2024/01/11 00:34:50;;;;;;;56.83;21.48;;;-6.30;99.90;;;;;;5023967;28;20129;-64
2024/01/11 00:37:16;;;;;;;60.85;22.15;;;-6.30;99.90;;;;;;5041937;28;20042;-64
2024/01/11 00:39:42;;;;;;;51.33;21.67;;;-6.30;99.90;;;;;;5027611;28;20079;-65
2024/01/11 00:42:07;;;;;;;49.03;20.90;;;-6.40;99.90;;;;;;5028260;28;20120;-65
2024/01/11 00:44:33;;;;;;;54.10;20.08;;;-6.40;99.90;;;;;;5028892;28;20041;-64
2024/01/11 00:46:59;;;;;;;45.65;19.35;;;-6.30;99.90;;;;;;5024829;28;20045;-65
2024/01/11 00:49:25;;;;;;;56.47;20.77;;;-6.40;99.90;;;;;;5030356;28;20043;-65
2024/01/11 00:51:50;;;;;;;51.22;18.88;;;-6.40;99.90;;;;;;5030528;28;20037;-65
2024/01/11 00:54:16;;;;;;;47.22;19.52;;;-6.40;99.90;;;;;;5032551;28;20154;-66
2024/01/11 00:56:41;;;;;;;55.10;20.58;;;-6.50;99.90;;;;;;5029125;28;20128;-64
2024/01/11 00:59:07;;;;;;;50.42;19.50;;;-6.40;99.90;;;;;;5029830;28;20431;-64
2024/01/11 01:01:33;;;;;;;52.30;20.02;;;-6.50;99.90;;;;;;5007364;28;20206;-65
2024/01/11 01:03:58;;;;;;;56.40;19.45;;;-6.40;99.90;;;;;;5029019;28;20473;-65
2024/01/11 01:06:24;;;;;;;51.50;20.17;;;-6.40;99.90;;;;;;5034666;28;20041;-65
2024/01/11 01:08:50;;;;;;;53.17;20.00;;;-6.40;99.90;;;;;;5031698;28;20065;-64
2024/01/11 01:11:15;;;;;;;49.92;19.40;;;-6.40;99.90;;;;;;5034639;28;20047;-65
2024/01/11 01:13:41;;;;;;;46.28;18.90;;;-6.40;99.90;;;;;;5020871;28;20061;-65
2024/01/11 01:16:06;;;;;;;51.08;18.88;;;-6.40;99.90;;;;;;5033388;28;20507;-65
2024/01/11 01:18:32;;;;;;;51.72;20.77;;;-6.40;99.90;;;;;;5033112;28;20029;-65
2024/01/11 01:20:58;;;;;;;56.30;20.98;;;-6.40;99.90;;;;;;5015450;28;20060;-65
2024/01/11 01:23:23;;;;;;;55.55;19.35;;;-6.40;99.90;;;;;;5028638;28;20350;-65
2024/01/11 01:25:49;;;;;;;53.15;20.48;;;-6.30;99.90;;;;;;5028807;28;20084;-65
2024/01/11 01:28:14;;;;;;;51.88;20.65;;;-6.30;99.90;;;;;;5015258;28;20548;-65
2024/01/11 01:30:40;;;;;;;60.95;22.02;;;-6.30;99.90;;;;;;5038895;28;20053;-65
2024/01/11 01:33:06;;;;;;;58.10;21.33;;;-6.20;99.90;;;;;;5037513;28;20053;-64
2024/01/11 01:35:32;;;;;;;52.10;21.83;;;-6.30;99.90;;;;;;5049156;28;20037;-65
2024/01/11 01:37:58;;;;;;;63.78;22.67;;;-6.30;99.90;;;;;;5016020;28;20061;-65
2024/01/11 01:40:24;;;;;;;60.42;21.02;;;-6.30;99.90;;;;;;5031982;28;20397;-65
2024/01/11 01:42:49;;;;;;;53.92;20.95;;;-6.30;99.90;;;;;;5031950;28;20044;-65
2024/01/11 01:45:15;;;;;;;58.33;21.52;;;-6.30;99.90;;;;;;5035313;28;20059;-64
2024/01/11 01:47:43;;;;;;;56.17;19.98;;;-6.30;99.90;;;;;;5045173;28;20037;-65
2024/01/11 01:50:11;;;;;;;51.88;20.45;;;-6.30;99.90;;;;;;5046067;28;20045;-65
2024/01/11 01:52:39;;;;;;;61.53;21.63;;;-6.30;99.90;;;;;;5031367;28;20477;-65
2024/01/11 01:55:06;;;;;;;56.72;21.52;;;-6.30;99.90;;;;;;5048593;28;20051;-64
2024/01/11 01:57:34;;;;;;;51.05;19.80;;;-6.30;99.90;;;;;;5039383;28;20103;-64
2024/01/11 02:00:01;;;;;;;61.03;21.70;;;-6.30;99.90;;;;;;5042258;28;20045;-65
2024/01/11 02:02:28;;;;;;;55.72;20.05;;;-6.30;99.90;;;;;;5031159;28;20575;-65
2024/01/11 02:04:54;;;;;;;54.42;20.67;;;-6.30;99.90;;;;;;5030882;28;20046;-64
2024/01/11 02:07:20;;;;;;;57.97;19.70;;;-6.30;99.90;;;;;;5036221;28;20036;-65
2024/01/11 02:09:46;;;;;;;55.55;21.67;;;-6.40;99.90;;;;;;5036090;28;20362;-64
2024/01/11 02:12:12;;;;;;;56.75;21.88;;;-6.40;99.90;;;;;;5034560;28;20029;-65
2024/01/11 02:14:38;;;;;;;54.75;20.05;;;-6.40;99.90;;;;;;5014010;28;20033;-65
2024/01/11 02:17:04;;;;;;;60.47;21.40;;;-6.40;99.90;;;;;;5039783;28;20037;-64
2024/01/11 02:19:30;;;;;;;56.05;21.67;;;-6.40;99.90;;;;;;5040815;28;20625;-65
2024/01/11 02:21:59;;;;;;;54.63;21.75;;;-6.40;99.90;;;;;;5038726;28;20033;-65
2024/01/11 02:24:25;;;;;;;57.50;21.48;;;-6.40;99.90;;;;;;5033094;28;20053;-64
2024/01/11 02:27:02;;;;;;;52.60;19.55;;;-6.40;99.90;;;;;;5039538;28;20050;-65
2024/01/11 02:29:29;;;;;;;55.03;21.13;;;-6.40;99.90;;;;;;5030242;28;20045;-65
2024/01/11 02:31:55;;;;;;;53.70;20.83;;;-6.40;99.90;;;;;;5017762;28;20058;-65
2024/01/11 02:34:26;;;;;;;55.47;21.05;;;-6.40;99.90;;;;;;5038704;28;20041;-65
2024/01/11 02:36:53;;;;;;;51.80;18.17;;;-6.30;99.90;;;;;;5029587;28;20040;-65
2024/01/11 02:39:19;;;;;;;49.67;20.38;;;-6.30;99.90;;;;;;5031550;28;20040;-65
2024/01/11 02:41:46;;;;;;;59.50;20.58;;;-6.40;99.90;;;;;;5023569;28;20029;-64
2024/01/11 02:44:11;;;;;;;53.20;19.85;;;-6.40;99.90;;;;;;5029119;28;20099;-64
2024/01/11 02:46:37;;;;;;;60.33;22.80;;;-6.40;99.90;;;;;;5028572;28;20049;-64
2024/01/11 02:49:03;;;;;;;52.03;19.20;;;-6.40;99.90;;;;;;5038527;28;20124;-64
2024/01/11 02:51:28;;;;;;;53.83;21.17;;;-6.40;99.90;;;;;;5032133;28;20041;-65
2024/01/11 02:53:54;;;;;;;59.72;21.65;;;-6.30;99.90;;;;;;5030734;28;20040;-65
2024/01/11 02:56:20;;;;;;;50.97;20.08;;;-6.40;99.90;;;;;;5027624;28;20040;-65
2024/01/11 02:58:45;;;;;;;53.03;20.40;;;-6.40;99.90;;;;;;5045968;28;20044;-65
2024/01/11 03:01:11;;;;;;;49.83;19.52;;;-6.50;99.90;;;;;;5035715;28;20051;-65
2024/01/11 03:03:36;;;;;;;55.80;20.83;;;-6.40;99.90;;;;;;5035501;28;20076;-65
2024/01/11 03:06:02;;;;;;;61.53;21.88;;;-6.40;99.90;;;;;;5017370;28;20085;-65
2024/01/11 03:08:29;;;;;;;53.42;20.70;;;-6.40;99.90;;;;;;5040187;28;20057;-65
2024/01/11 03:10:54;;;;;;;63.95;23.83;;;-6.40;99.90;;;;;;5034666;28;20029;-64
2024/01/11 03:13:20;;;;;;;63.92;22.05;;;-6.40;99.90;;;;;;5053591;28;20040;-65
2024/01/11 03:15:46;;;;;;;62.92;22.73;;;-6.40;99.90;;;;;;5040284;28;20034;-64
2024/01/11 03:18:11;;;;;;;67.53;24.00;;;-6.40;99.90;;;;;;5016052;28;20155;-64
2024/01/11 03:20:37;;;;;;;56.00;21.90;;;-6.40;99.90;;;;;;5033298;28;20045;-65
2024/01/11 03:23:03;;;;;;;64.65;21.95;;;-6.40;99.90;;;;;;5022992;28;20052;-65
2024/01/11 03:25:29;;;;;;;59.22;21.98;;;-6.40;99.90;;;;;;5013157;28;20081;-65
2024/01/11 03:27:55;;;;;;;58.40;22.40;;;-6.40;99.90;;;;;;5025645;28;20083;-65
2024/01/11 03:30:20;;;;;;;60.45;22.77;;;-6.40;99.90;;;;;;5041888;28;20108;-64
2024/01/11 03:32:46;;;;;;;66.40;22.63;;;-6.40;99.90;;;;;;5017713;28;20041;-65
2024/01/11 03:35:12;;;;;;;55.55;22.27;;;-6.40;99.90;;;;;;5022583;28;20035;-65
2024/01/11 03:37:37;;;;;;;60.53;22.30;;;-6.40;99.90;;;;;;5016092;28;20083;-65
2024/01/11 03:40:03;;;;;;;57.38;21.40;;;-6.40;99.90;;;;;;5028730;28;20069;-65
2024/01/11 03:42:29;;;;;;;57.70;22.02;;;-6.40;99.90;;;;;;5022283;28;20041;-65
2024/01/11 03:44:55;;;;;;;63.22;23.33;;;-6.50;99.90;;;;;;5031872;28;20045;-65
2024/01/11 03:47:21;;;;;;;66.30;22.40;;;-6.50;99.90;;;;;;5034336;28;20045;-65
2024/01/11 03:49:46;;;;;;;62.70;22.33;;;-6.40;99.90;;;;;;5028160;28;20044;-65
2024/01/11 03:52:12;;;;;;;64.53;22.70;;;-6.40;99.90;;;;;;5031417;28;20072;-65
2024/01/11 03:54:38;;;;;;;63.55;23.10;;;-6.30;99.90;;;;;;5033601;28;20060;-65
2024/01/11 03:57:04;;;;;;;57.95;23.02;;;-6.30;99.90;;;;;;5036754;28;20037;-65
2024/01/11 03:59:29;;;;;;;63.78;21.55;;;-6.30;99.90;;;;;;5028477;28;20438;-65
2024/01/11 04:01:57;;;;;;;64.63;22.50;;;-6.40;99.90;;;;;;5017051;28;20045;-64
2024/01/11 04:04:23;;;;;;;60.58;22.05;;;-6.30;99.90;;;;;;5030394;28;20045;-65
2024/01/11 04:06:49;;;;;;;59.58;23.92;;;-6.30;99.90;;;;;;5028121;28;20068;-65
2024/01/11 04:09:15;;;;;;;65.50;22.88;;;-6.30;99.90;;;;;;5026986;28;20389;-65
2024/01/11 04:11:40;;;;;;;58.75;20.45;;;-6.30;99.90;;;;;;5021032;28;20033;-65
2024/01/11 04:14:06;;;;;;;76.43;27.02;;;-6.20;99.90;;;;;;5014726;28;20041;-64
2024/01/11 04:16:32;;;;;;;68.00;25.10;;;-6.20;99.90;;;;;;5029009;28;20042;-65
2024/01/11 04:18:57;;;;;;;69.70;25.02;;;-6.30;99.90;;;;;;5034436;28;20034;-66
2024/01/11 04:21:24;;;;;;;70.57;24.48;;;-6.20;99.90;;;;;;5025363;28;20037;-65
2024/01/11 04:23:50;;;;;;;66.22;23.88;;;-6.20;99.90;;;;;;5012867;28;20451;-64
2024/01/11 04:26:17;;;;;;;68.70;24.45;;;-6.30;99.90;;;;;;5027249;28;20044;-65
2024/01/11 04:28:44;;;;;;;65.63;22.60;;;-6.30;99.90;;;;;;5029838;28;20149;-65
2024/01/11 04:31:10;;;;;;;67.75;22.90;;;-6.30;99.90;;;;;;5027753;28;20054;-66
2024/01/11 04:33:39;;;;;;;65.07;23.48;;;-6.30;99.90;;;;;;5028896;28;20124;-65
2024/01/11 04:36:05;;;;;;;59.42;23.35;;;-6.40;99.90;;;;;;5042727;28;20033;-65
2024/01/11 04:38:31;;;;;;;59.83;22.05;;;-6.40;99.90;;;;;;5027646;28;20037;-65
2024/01/11 04:40:57;;;;;;;48.60;20.38;;;-6.50;99.90;;;;;;5034515;28;20037;-65
2024/01/11 04:43:22;;;;;;;54.75;20.73;;;-6.50;99.90;;;;;;5030765;28;20071;-65
2024/01/11 04:45:48;;;;;;;54.00;21.52;;;-6.40;99.90;;;;;;5029551;28;20068;-65
2024/01/11 04:48:13;;;;;;;60.22;21.58;;;-6.50;99.90;;;;;;5031124;28;20116;-65
2024/01/11 04:50:39;;;;;;;56.10;21.02;;;-6.50;99.90;;;;;;5039645;28;20103;-65
2024/01/11 04:53:05;;;;;;;57.72;22.20;;;-6.50;99.90;;;;;;5038082;28;20033;-65
2024/01/11 04:55:30;;;;;;;58.80;22.88;;;-6.60;99.90;;;;;;5032934;28;20392;-65
2024/01/11 04:57:56;;;;;;;54.60;21.50;;;-6.50;99.90;;;;;;5032341;28;20111;-65
2024/01/11 05:00:21;;;;;;;62.85;22.23;;;-6.40;99.90;;;;;;5027311;28;20056;-65
2024/01/11 05:02:47;;;;;;;57.33;23.05;;;-6.30;99.90;;;;;;5031738;28;20136;-66
2024/01/11 05:05:13;;;;;;;63.63;23.00;;;-6.20;99.90;;;;;;5046040;28;20354;-65
2024/01/11 05:07:38;;;;;;;52.88;22.25;;;-6.20;99.90;;;;;;5046869;28;20045;-65
2024/01/11 05:10:04;;;;;;;60.00;23.13;;;-6.00;99.90;;;;;;5013572;28;20033;-66
2024/01/11 05:12:30;;;;;;;70.15;25.17;;;-5.80;99.90;;;;;;5025117;28;20074;-65
2024/01/11 05:14:56;;;;;;;72.00;27.98;;;-5.70;99.90;;;;;;5023242;28;20049;-65
2024/01/11 05:17:22;;;;;;;66.72;23.30;;;-5.60;99.90;;;;;;5030571;28;20045;-65
2024/01/11 05:19:48;;;;;;;69.65;24.80;;;-5.50;99.90;;;;;;5028521;28;20549;-65
2024/01/11 05:22:13;;;;;;;62.70;23.77;;;-5.40;99.90;;;;;;5031079;28;20044;-65
2024/01/11 05:24:39;;;;;;;75.57;26.73;;;-5.30;99.90;;;;;;5034736;28;20122;-66
2024/01/11 05:27:05;;;;;;;65.80;24.50;;;-5.20;99.90;;;;;;5031636;28;20669;-65
2024/01/11 05:29:31;;;;;;;70.35;26.60;;;-5.20;99.90;;;;;;5018611;28;20045;-65
2024/01/11 05:31:57;;;;;;;67.93;25.80;;;-5.00;99.90;;;;;;5038175;28;20263;-65
2024/01/11 05:34:23;;;;;;;65.07;25.25;;;-5.00;99.90;;;;;;5029545;28;20445;-65
2024/01/11 05:36:49;;;;;;;78.15;28.40;;;-4.90;99.90;;;;;;5026383;28;20033;-65
2024/01/11 05:39:14;;;;;;;76.22;26.83;;;-4.80;99.90;;;;;;5028096;28;20366;-65
2024/01/11 05:41:44;;;;;;;75.20;26.50;;;-4.80;99.90;;;;;;5031064;28;20504;-66
2024/01/11 05:44:10;;;;;;;76.32;27.33;;;-4.70;99.90;;;;;;5028709;28;20688;-66
2024/01/11 05:46:36;;;;;;;70.95;25.38;;;-4.60;99.90;;;;;;5037221;28;20033;-65
2024/01/11 05:49:01;;;;;;;70.22;25.95;;;-4.50;99.90;;;;;;5042311;28;20185;-65
2024/01/11 05:51:27;;;;;;;62.85;22.98;;;-4.40;99.90;;;;;;5038481;28;20034;-66
2024/01/11 05:53:53;;;;;;;67.35;24.25;;;-4.30;99.90;;;;;;5037166;28;20140;-66
2024/01/11 05:56:20;;;;;;;65.85;24.50;;;-4.20;99.90;;;;;;5030461;28;20080;-66
2024/01/11 05:58:46;;;;;;;64.97;23.25;;;-4.10;99.90;;;;;;5031077;28;20034;-66
2024/01/11 06:01:12;;;;;;;64.43;23.73;;;-4.10;99.90;;;;;;5044201;28;20603;-66
2024/01/11 06:03:38;;;;;;;70.13;24.10;;;-4.00;99.90;;;;;;5017698;28;20040;-66
2024/01/11 06:06:05;;;;;;;65.30;23.65;;;-3.90;99.90;;;;;;5016544;28;20033;-66
2024/01/11 06:08:31;;;;;;;71.38;24.13;;;-3.90;99.90;;;;;;5038015;28;20045;-66
2024/01/11 06:11:00;;;;;;;69.07;24.77;;;-3.80;99.90;;;;;;5022356;28;20037;-66
2024/01/11 06:13:26;;;;;;;66.63;24.10;;;-3.80;99.90;;;;;;5031139;28;20596;-66
2024/01/11 06:15:51;;;;;;;61.22;22.17;;;-3.70;99.90;;;;;;5029816;28;20406;-66
2024/01/11 06:18:17;;;;;;;70.20;24.55;;;-3.60;99.90;;;;;;5019058;28;20036;-66
2024/01/11 06:20:43;;;;;;;65.97;25.00;;;-3.60;99.90;;;;;;5031125;28;20479;-66
2024/01/11 06:23:08;;;;;;;63.80;23.10;;;-3.60;99.90;;;;;;5034071;28;20575;-66
2024/01/11 06:25:34;;;;;;;65.68;25.15;;;-3.50;99.90;;;;;;5036845;28;20029;-67
2024/01/11 06:28:00;;;;;;;65.57;24.50;;;-3.50;99.90;;;;;;5034263;28;20092;-65
2024/01/11 06:30:25;;;;;;;73.88;26.13;;;-3.40;99.90;;;;;;5014350;28;20501;-66
2024/01/11 06:32:51;;;;;;;65.80;24.98;;;-3.40;99.90;;;;;;5034741;28;20033;-66
2024/01/11 06:35:17;;;;;;;72.22;28.35;;;-3.40;99.90;;;;;;5033607;28;20033;-66
2024/01/11 06:37:43;;;;;;;71.88;26.27;;;-3.30;99.90;;;;;;5038437;28;20398;-66
2024/01/11 06:40:09;;;;;;;75.80;27.27;;;-3.30;99.90;;;;;;5035521;28;20361;-66
2024/01/11 06:42:35;;;;;;;67.05;25.92;;;-3.30;99.90;;;;;;5013592;28;20038;-66
2024/01/11 06:45:01;;;;;;;75.32;26.67;;;-3.30;99.90;;;;;;5017488;28;20484;-66
2024/01/11 06:47:26;;;;;;;67.13;25.10;;;-3.20;99.90;;;;;;5035058;28;20095;-66
2024/01/11 06:49:53;;;;;;;65.75;25.00;;;-3.20;99.90;;;;;;5020637;28;20040;-66
2024/01/11 06:52:19;;;;;;;71.40;27.17;;;-3.20;99.90;;;;;;5011957;28;20677;-66
2024/01/11 06:54:45;;;;;;;69.18;25.08;;;-3.20;99.90;;;;;;5016790;28;20053;-66
2024/01/11 06:57:11;;;;;;;66.65;25.52;;;-3.20;99.90;;;;;;5031809;28;20041;-66
2024/01/11 06:59:37;;;;;;;62.22;23.90;;;-3.20;99.90;;;;;;5022286;28;20056;-69
2024/01/11 07:02:03;;;;;;;68.72;24.45;;;-3.10;99.90;;;;;;5015286;28;20079;-66
2024/01/11 07:04:29;;;;;;;70.30;25.42;;;-3.10;99.90;;;;;;5032050;28;20122;-66
2024/01/11 07:06:54;;;;;;;59.78;23.35;;;-3.10;99.90;;;;;;5027564;28;20448;-66
2024/01/11 07:09:20;;;;;;;70.00;26.33;;;-3.00;99.90;;;;;;5027798;28;20037;-66
2024/01/11 07:11:46;;;;;;;64.95;25.30;;;-3.00;99.90;;;;;;5033386;28;20510;-66
2024/01/11 07:14:11;;;;;;;63.45;23.27;;;-3.00;99.90;;;;;;5013784;28;20099;-66
2024/01/11 07:16:37;;;;;;;63.13;25.67;;;-3.00;99.90;;;;;;5017636;28;20033;-67
2024/01/11 07:19:03;;;;;;;66.72;26.05;;;-2.90;99.90;;;;;;5031779;28;20600;-66
2024/01/11 07:21:31;;;;;;;64.18;24.52;;;-2.90;99.90;;;;;;5025159;28;20147;-66
2024/01/11 07:24:00;;;;;;;65.15;23.80;;;-2.90;99.90;;;;;;5033228;28;20435;-66
2024/01/11 07:26:26;;;;;;;62.88;24.58;;;-2.80;99.90;;;;;;5018808;28;20048;-66
2024/01/11 07:28:54;;;;;;;60.53;25.27;;;-2.80;99.90;;;;;;5034543;28;20492;-66
2024/01/11 07:31:20;;;;;;;64.65;25.25;;;-2.80;99.90;;;;;;5030940;28;20070;-67
2024/01/11 07:33:46;;;;;;;69.32;28.67;;;-2.80;99.90;;;;;;5032293;28;20033;-66
2024/01/11 07:36:11;;;;;;;75.47;30.88;;;-2.80;99.90;;;;;;5039680;28;20487;-66
2024/01/11 07:38:37;;;;;;;69.72;26.17;;;-2.70;99.90;;;;;;5030910;28;20068;-66
2024/01/11 07:41:03;;;;;;;70.05;26.13;;;-2.70;99.90;;;;;;5030765;28;20552;-68
2024/01/11 07:43:29;;;;;;;63.85;23.80;;;-2.70;99.90;;;;;;5028694;28;20073;-66
2024/01/11 07:45:56;;;;;;;70.13;25.13;;;-2.70;99.90;;;;;;5027982;28;20056;-67
2024/01/11 07:48:22;;;;;;;69.68;25.70;;;-2.60;99.90;;;;;;5029470;28;20053;-66
2024/01/11 07:50:49;;;;;;;65.88;25.73;;;-2.60;99.90;;;;;;5016219;28;20033;-66
2024/01/11 07:53:14;;;;;;;69.57;27.13;;;-2.60;99.90;;;;;;5039594;28;20037;-66
2024/01/11 07:55:40;;;;;;;65.35;25.38;;;-2.60;99.90;;;;;;5025530;28;20048;-66
2024/01/11 07:58:07;;;;;;;62.05;25.30;;;-2.50;99.90;;;;;;5041004;28;20536;-66
2024/01/11 08:00:33;;;;;;;65.35;25.42;;;-2.50;99.90;;;;;;5037088;28;20076;-67
2024/01/11 08:02:59;;;;;;;63.30;26.02;;;-2.50;99.90;;;;;;5028069;28;20048;-66
2024/01/11 08:05:25;;;;;;;66.68;25.20;;;-2.50;99.90;;;;;;5024163;28;20436;-67
2024/01/11 08:07:51;;;;;;;64.10;25.80;;;-2.40;99.90;;;;;;5027967;28;20107;-67
2024/01/11 08:10:17;;;;;;;65.35;25.52;;;-2.40;99.90;;;;;;5043303;28;20061;-66
2024/01/11 08:12:42;;;;;;;66.78;25.30;;;-2.40;99.90;;;;;;5024361;28;20865;-67
2024/01/11 08:15:12;;;;;;;55.15;23.98;;;-2.40;99.90;;;;;;5041621;28;20067;-66
2024/01/11 08:17:39;;;;;;;66.88;23.80;;;-2.40;99.90;;;;;;5025577;28;20037;-66
2024/01/11 08:20:07;;;;;;;66.05;24.48;;;-2.30;99.90;;;;;;5031269;28;20074;-67
2024/01/11 08:22:35;;;;;;;61.63;23.83;;;-2.30;99.90;;;;;;5026717;28;20044;-68
2024/01/11 08:25:04;;;;;;;64.82;23.42;;;-2.20;99.90;;;;;;5031040;28;20128;-67
2024/01/11 08:27:31;;;;;;;66.85;25.38;;;-2.20;99.90;;;;;;5035100;28;20123;-67
2024/01/11 08:29:57;;;;;;;73.10;25.45;;;-2.20;99.90;;;;;;5030633;28;20037;-68
2024/01/11 08:32:22;;;;;;;58.40;24.13;;;-2.20;99.90;;;;;;5036809;28;20068;-67
2024/01/11 08:34:48;;;;;;;55.95;22.83;;;-2.10;99.90;;;;;;5029082;28;20573;-67
2024/01/11 08:37:14;;;;;;;66.80;24.27;;;-2.10;99.90;;;;;;5031853;28;20106;-67
2024/01/11 08:39:40;;;;;;;68.63;25.00;;;-2.10;99.90;;;;;;5027100;28;20464;-66
2024/01/11 08:42:06;;;;;;;62.53;24.52;;;-2.00;99.90;;;;;;5013897;28;20478;-67
2024/01/11 08:44:32;;;;;;;72.53;25.27;;;-2.00;99.90;;;;;;5032761;28;20099;-67
2024/01/11 08:46:58;;;;;;;60.08;23.13;;;-2.00;99.90;;;;;;5029603;28;20051;-67
2024/01/11 08:49:25;;;;;;;58.90;23.27;;;-1.90;99.90;;;;;;5022211;28;20047;-68
2024/01/11 08:51:50;;;;;;;66.18;24.02;;;-1.90;99.90;;;;;;5034919;28;20034;-67
2024/01/11 08:54:16;;;;;;;63.97;24.02;;;-1.80;99.90;;;;;;5034366;28;20033;-67
2024/01/11 08:56:45;;;;;;;65.22;24.25;;;-1.80;99.90;;;;;;5033687;28;20029;-67
2024/01/11 08:59:10;;;;;;;73.75;24.80;;;-1.70;99.90;;;;;;5027684;28;20055;-67
2024/01/11 09:01:37;;;;;;;70.88;24.90;;;-1.70;99.90;;;;;;5039470;28;20048;-68
2024/01/11 09:04:03;;;;;;;65.03;25.88;;;-1.60;99.90;;;;;;5017686;28;20033;-67
2024/01/11 09:06:29;;;;;;;71.32;24.15;;;-1.60;99.90;;;;;;5014943;28;20041;-66
2024/01/11 09:08:54;;;;;;;64.72;23.25;;;-1.60;99.90;;;;;;5029470;28;20397;-66
2024/01/11 09:11:20;;;;;;;60.47;23.08;;;-1.50;99.90;;;;;;5012022;28;20037;-67
2024/01/11 09:13:46;;;;;;;63.13;23.42;;;-1.40;99.90;;;;;;5030751;28;20041;-67
2024/01/11 09:16:16;;;;;;;61.45;20.38;;;-1.40;99.90;;;;;;5027424;28;20156;-67
2024/01/11 09:18:43;;;;;;;61.13;22.67;;;-1.30;99.90;;;;;;5028422;28;20053;-67
2024/01/11 09:21:09;;;;;;;59.75;23.17;;;-1.20;99.90;;;;;;5028343;28;20092;-66
2024/01/11 09:23:35;;;;;;;55.00;20.83;;;-1.20;99.90;;;;;;5029789;28;20140;-67
2024/01/11 09:26:01;;;;;;;51.22;19.98;;;-1.10;99.90;;;;;;5015006;28;20323;-67
2024/01/11 09:28:26;;;;;;;49.92;19.92;;;-1.00;99.90;;;;;;5040155;28;20068;-67
2024/01/11 09:30:52;;;;;;;55.67;21.23;;;-1.00;99.90;;;;;;5031610;28;20152;-67
2024/01/11 09:33:18;;;;;;;56.13;20.17;;;-0.90;99.90;;;;;;5014945;28;20374;-67
2024/01/11 09:35:43;;;;;;;50.53;19.60;;;-0.80;99.90;;;;;;5040100;28;20142;-67
2024/01/11 09:38:09;;;;;;;45.58;19.48;;;-0.70;99.90;;;;;;5043097;28;20055;-67
2024/01/11 09:40:34;;;;;;;51.63;21.70;;;-0.70;99.90;;;;;;5032500;28;20033;-67
2024/01/11 09:43:04;;;;;;;50.03;19.58;;;-0.70;99.90;;;;;;5040053;28;20127;-68
2024/01/11 09:45:30;;;;;;;49.28;19.52;;;-0.60;99.90;;;;;;5047031;28;20063;-67
2024/01/11 09:47:56;;;;;;;45.50;19.95;;;-0.60;99.90;;;;;;5043616;28;20124;-68
2024/01/11 09:50:23;;;;;;;49.83;18.67;;;-0.50;99.90;;;;;;5045327;28;20041;-68
2024/01/11 09:52:50;;;;;;;52.22;20.90;;;-0.50;99.90;;;;;;5029832;28;20087;-68
2024/01/11 09:55:17;;;;;;;53.28;20.13;;;-0.40;99.90;;;;;;5033112;28;20041;-68
2024/01/11 09:57:48;;;;;;;57.90;22.73;;;-0.40;99.90;;;;;;5015446;28;20501;-69
2024/01/11 10:00:20;;;;;;;55.08;21.35;;;-0.40;99.90;;;;;;5020111;28;20049;-68
2024/01/11 10:02:46;;;;;;;55.72;19.83;;;-0.30;99.90;;;;;;5029906;28;20083;-68
2024/01/11 10:05:13;;;;;;;53.60;19.98;;;-0.20;99.90;;;;;;5032496;28;20041;-68
2024/01/11 10:07:39;;;;;;;50.22;18.55;;;-0.20;99.90;;;;;;5035547;28;21493;-68
2024/01/11 10:10:07;;;;;;;50.85;19.90;;;-0.10;99.90;;;;;;5024590;28;20036;-68
2024/01/11 10:12:35;;;;;;;44.28;17.73;;;-0.10;99.90;;;;;;5037080;28;20045;-69
2024/01/11 10:15:11;;;;;;;46.88;18.77;;;0.00;99.90;;;;;;5044542;28;20041;-68
2024/01/11 10:17:43;;;;;;;40.85;17.17;;;0.00;99.90;;;;;;5041490;28;20127;-68
2024/01/11 10:20:10;;;;;;;43.80;17.52;;;0.00;99.90;;;;;;5032384;28;20096;-68
2024/01/11 10:22:36;;;;;;;39.80;18.27;;;0.10;99.90;;;;;;5048061;28;20111;-68
2024/01/11 10:25:13;;;;;;;42.28;18.55;;;0.10;99.90;;;;;;5050353;28;20083;-68
2024/01/11 10:27:44;;;;;;;39.90;15.48;;;0.20;99.90;;;;;;5049799;28;20052;-69
2024/01/11 10:30:17;;;;;;;40.30;16.15;;;0.20;99.90;;;;;;5030723;28;20102;-68
2024/01/11 10:32:47;;;;;;;41.22;16.05;;;0.20;99.90;;;;;;5014106;28;20080;-68
2024/01/11 10:35:13;;;;;;;42.47;17.85;;;0.20;99.90;;;;;;5031258;28;20478;-69
2024/01/11 10:37:39;;;;;;;39.03;16.20;;;0.30;99.90;;;;;;5034727;28;20047;-69
2024/01/11 10:40:12;;;;;;;40.20;15.25;;;0.30;99.90;;;;;;5032858;28;20037;-68
2024/01/11 10:42:49;;;;;;;38.45;16.60;;;0.30;99.90;;;;;;5037261;28;20053;-68
2024/01/11 10:45:16;;;;;;;39.85;17.02;;;0.30;99.90;;;;;;5045554;28;20047;-69
2024/01/11 10:48:04;;;;;;;44.08;17.45;;;0.40;99.90;;;;;;5041192;28;20512;-69
2024/01/11 10:50:45;;;;;;;38.28;16.83;;;0.40;99.90;;;;;;5039266;28;20437;-69
2024/01/11 10:53:20;;;;;;;36.58;16.05;;;0.40;99.90;;;;;;5017218;28;20041;-68
2024/01/11 10:55:47;;;;;;;38.33;15.77;;;0.40;99.90;;;;;;5043170;28;20457;-68
2024/01/11 10:58:15;;;;;;;38.97;15.73;;;0.40;99.90;;;;;;5042888;28;20049;-69
2024/01/11 11:00:41;;;;;;;38.58;16.15;;;0.40;99.90;;;;;;5022816;28;20045;-69
2024/01/11 11:03:08;;;;;;;39.50;15.55;;;0.50;99.90;;;;;;5043115;28;20041;-68
2024/01/11 11:05:35;;;;;;;40.25;16.30;;;0.50;99.90;;;;;;5050392;28;20045;-69
2024/01/11 11:08:07;;;;;;;45.40;17.17;;;0.40;99.90;;;;;;5037548;28;20037;-69
2024/01/11 11:10:34;;;;;;;37.90;16.05;;;0.50;99.90;;;;;;5043600;28;20055;-68
2024/01/11 11:13:00;;;;;;;35.30;15.32;;;0.50;99.90;;;;;;5036263;28;20037;-68
2024/01/11 11:15:29;;;;;;;37.03;14.88;;;0.50;99.90;;;;;;5033033;28;20087;-68
2024/01/11 11:17:55;;;;;;;37.75;16.50;;;0.50;99.90;;;;;;5032780;28;20033;-69
2024/01/11 11:20:21;;;;;;;37.40;16.20;;;0.60;99.90;;;;;;5024601;28;20076;-68
2024/01/11 11:23:07;;;;;;;37.22;15.80;;;0.60;99.90;;;;;;5031110;28;20045;-68
2024/01/11 11:25:34;;;;;;;39.28;16.02;;;0.60;99.90;;;;;;5043920;28;20064;-68
2024/01/11 11:28:03;;;;;;;37.58;15.80;;;0.60;99.90;;;;;;5043256;28;21105;-68
2024/01/11 11:30:32;;;;;;;38.80;16.67;;;0.60;99.90;;;;;;5035568;28;20054;-69
2024/01/11 11:33:06;;;;;;;45.47;17.55;;;0.60;99.90;;;;;;5028807;28;20045;-69
2024/01/11 11:35:32;;;;;;;41.17;16.77;;;0.70;99.90;;;;;;5035920;28;20034;-69
2024/01/11 11:37:58;;;;;;;38.55;16.33;;;0.70;99.90;;;;;;5022862;28;20421;-69
2024/01/11 11:40:38;;;;;;;36.00;17.30;;;0.70;99.90;;;;;;5031441;28;20084;-69
2024/01/11 11:43:05;;;;;;;37.00;17.35;;;0.70;99.90;;;;;;5032723;28;20132;-69
2024/01/11 11:45:31;;;;;;;36.08;16.40;;;0.70;99.90;;;;;;5040131;28;20037;-69
2024/01/11 11:47:57;;;;;;;35.95;16.23;;;0.80;99.90;;;;;;5036297;28;20037;-69
2024/01/11 11:50:26;;;;;;;38.47;15.48;;;0.80;99.90;;;;;;5039405;28;20043;-69
2024/01/11 11:52:56;;;;;;;37.30;15.60;;;0.80;99.90;;;;;;5045694;28;20152;-71
2024/01/11 11:55:23;;;;;;;;;;;0.80;99.90;;;;;;5043033;28;20048;-70
2024/01/11 11:57:49;;;;;;;36.28;14.88;;;0.80;99.90;;;;;;5049111;28;19960;-69
2024/01/11 12:00:16;;;;;;;36.00;16.48;;;0.80;99.90;;;;;;5015937;28;20052;-69
2024/01/11 12:02:42;;;;;;;39.83;15.77;;;0.90;99.90;;;;;;5038039;28;20045;-70
2024/01/11 12:05:08;;;;;;;38.22;17.65;;;0.80;99.90;;;;;;5029287;28;20061;-71
2024/01/11 12:07:33;;;;;;;39.15;16.77;;;0.90;99.90;;;;;;5037293;28;20056;-70
2024/01/11 12:09:59;;;;;;;39.47;17.45;;;0.90;99.90;;;;;;5019257;28;20055;-70
2024/01/11 12:12:25;;;;;;;42.55;18.15;;;0.90;99.90;;;;;;5031892;28;20065;-70
2024/01/11 12:14:52;;;;;;;40.80;18.45;;;0.90;99.90;;;;;;5039330;28;20492;-70
2024/01/11 12:17:18;;;;;;;40.90;17.60;;;0.90;99.90;;;;;;5028333;28;20037;-70
2024/01/11 12:19:44;;;;;;;35.70;16.65;;;0.90;99.90;;;;;;5025666;28;20103;-71
2024/01/11 12:22:10;;;;;;;41.97;17.60;;;0.90;99.90;;;;;;5031223;28;20033;-70
2024/01/11 12:24:35;;;;;;;42.50;16.83;;;0.90;99.90;;;;;;5029930;28;20045;-70